sensor_id;sensor_type;location;lat;lon;timestamp;pressure;altitude;pressure_sealevel;temperature;humidity
71149;BME280;59072;42.144;25.200;2022-11-20T00:02:22;99494.91;;;17.43;99.59
71149;BME280;59072;42.144;25.200;2022-11-20T00:04:47;99512.34;;;17.56;99.52
71149;BME280;59072;42.144;25.200;2022-11-20T00:07:13;99510.81;;;17.45;99.90
71149;BME280;59072;42.144;25.200;2022-11-20T00:09:38;99505.06;;;17.57;99.51
71149;BME280;59072;42.144;25.200;2022-11-20T00:12:04;99491.63;;;17.52;99.74
71149;BME280;59072;42.144;25.200;2022-11-20T00:14:29;99515.31;;;17.60;99.82
71149;BME280;59072;42.144;25.200;2022-11-20T00:16:54;99509.47;;;17.42;100.00
71149;BME280;59072;42.144;25.200;2022-11-20T00:19:20;99515.72;;;17.33;100.00
71149;BME280;59072;42.144;25.200;2022-11-20T00:21:45;99507.06;;;17.41;100.00
71149;BME280;59072;42.144;25.200;2022-11-20T00:24:11;99520.75;;;17.50;100.00
71149;BME280;59072;42.144;25.200;2022-11-20T00:26:37;99493.00;;;17.44;100.00
71149;BME280;59072;42.144;25.200;2022-11-20T00:29:02;99505.91;;;17.52;100.00
71149;BME280;59072;42.144;25.200;2022-11-20T00:31:29;99512.41;;;17.46;100.00
71149;BME280;59072;42.144;25.200;2022-11-20T00:33:55;99502.78;;;17.35;100.00
71149;BME280;59072;42.144;25.200;2022-11-20T00:36:23;99502.25;;;17.33;100.00
71149;BME280;59072;42.144;25.200;2022-11-20T00:38:58;99490.41;;;17.29;100.00
71149;BME280;59072;42.144;25.200;2022-11-20T00:41:25;99484.50;;;17.26;100.00
71149;BME280;59072;42.144;25.200;2022-11-20T00:43:52;99511.88;;;17.44;100.00
71149;BME280;59072;42.144;25.200;2022-11-20T00:46:21;99510.50;;;17.46;100.00
71149;BME280;59072;42.144;25.200;2022-11-20T00:48:46;99507.06;;;17.41;100.00
71149;BME280;59072;42.144;25.200;2022-11-20T00:51:18;99514.03;;;17.42;100.00
71149;BME280;59072;42.144;25.200;2022-11-20T00:53:44;99507.06;;;17.36;100.00
71149;BME280;59072;42.144;25.200;2022-11-20T00:56:12;99510.28;;;17.43;100.00
71149;BME280;59072;42.144;25.200;2022-11-20T00:58:40;99528.06;;;17.44;99.96
71149;BME280;59072;42.144;25.200;2022-11-20T01:01:17;99502.75;;;17.40;99.48
71149;BME280;59072;42.144;25.200;2022-11-20T01:03:47;99526.88;;;17.60;99.57
71149;BME280;59072;42.144;25.200;2022-11-20T01:06:14;99518.84;;;17.55;99.74
71149;BME280;59072;42.144;25.200;2022-11-20T01:08:39;99520.00;;;17.39;100.00
71149;BME280;59072;42.144;25.200;2022-11-20T01:11:16;99525.41;;;17.34;100.00
71149;BME280;59072;42.144;25.200;2022-11-20T01:13:44;99504.59;;;17.44;100.00
71149;BME280;59072;42.144;25.200;2022-11-20T01:16:23;99508.66;;;17.47;99.70
71149;BME280;59072;42.144;25.200;2022-11-20T01:18:51;99497.88;;;17.42;100.00
71149;BME280;59072;42.144;25.200;2022-11-20T01:21:20;99492.69;;;17.51;99.66
71149;BME280;59072;42.144;25.200;2022-11-20T01:23:47;99490.81;;;17.51;99.13
71149;BME280;59072;42.144;25.200;2022-11-20T01:26:15;99488.66;;;17.53;99.14
71149;BME280;59072;42.144;25.200;2022-11-20T01:28:42;99482.22;;;17.49;99.46
71149;BME280;59072;42.144;25.200;2022-11-20T01:31:17;99496.75;;;17.48;98.86
71149;BME280;59072;42.144;25.200;2022-11-20T01:33:44;99489.78;;;17.47;98.91
71149;BME280;59072;42.144;25.200;2022-11-20T01:36:11;99476.56;;;17.45;98.50
71149;BME280;59072;42.144;25.200;2022-11-20T01:38:37;99481.63;;;17.52;98.03
71149;BME280;59072;42.144;25.200;2022-11-20T01:41:03;99468.22;;;17.47;98.20
71149;BME280;59072;42.144;25.200;2022-11-20T01:43:28;99496.50;;;17.50;98.32
71149;BME280;59072;42.144;25.200;2022-11-20T01:51:41;99483.25;;;17.53;98.02
71149;BME280;59072;42.144;25.200;2022-11-20T01:54:13;99469.56;;;17.44;98.42
71149;BME280;59072;42.144;25.200;2022-11-20T01:56:43;99475.44;;;17.52;98.37
71149;BME280;59072;42.144;25.200;2022-11-20T01:59:10;99479.31;;;17.35;99.44
71149;BME280;59072;42.144;25.200;2022-11-20T02:01:37;99476.50;;;17.56;97.60
71149;BME280;59072;42.144;25.200;2022-11-20T02:04:04;99459.59;;;17.45;97.68
71149;BME280;59072;42.144;25.200;2022-11-20T02:06:36;99463.72;;;17.27;98.59
71149;BME280;59072;42.144;25.200;2022-11-20T02:09:05;99465.16;;;17.14;99.16
71149;BME280;59072;42.144;25.200;2022-11-20T02:11:31;99468.81;;;17.34;98.18
71149;BME280;59072;42.144;25.200;2022-11-20T02:13:57;99463.94;;;17.36;97.50
71149;BME280;59072;42.144;25.200;2022-11-20T02:16:28;99454.75;;;17.42;96.79
71149;BME280;59072;42.144;25.200;2022-11-20T02:18:57;99443.91;;;17.52;96.25
71149;BME280;59072;42.144;25.200;2022-11-20T02:21:33;99452.03;;;17.47;96.40
71149;BME280;59072;42.144;25.200;2022-11-20T02:24:06;99451.97;;;17.57;95.52
71149;BME280;59072;42.144;25.200;2022-11-20T02:26:38;99433.72;;;17.44;95.32
71149;BME280;59072;42.144;25.200;2022-11-20T02:29:05;99435.28;;;17.50;94.54
71149;BME280;59072;42.144;25.200;2022-11-20T02:31:36;99448.91;;;17.69;94.12
71149;BME280;59072;42.144;25.200;2022-11-20T02:34:02;99431.19;;;17.58;93.31
71149;BME280;59072;42.144;25.200;2022-11-20T02:36:29;99456.38;;;17.77;92.97
71149;BME280;59072;42.144;25.200;2022-11-20T02:38:56;99430.31;;;17.67;91.46
71149;BME280;59072;42.144;25.200;2022-11-20T02:41:30;99453.41;;;17.79;91.54
71149;BME280;59072;42.144;25.200;2022-11-20T02:43:56;99432.16;;;17.72;90.68
71149;BME280;59072;42.144;25.200;2022-11-20T02:46:21;99443.94;;;17.86;91.28
71149;BME280;59072;42.144;25.200;2022-11-20T02:48:46;99422.84;;;17.59;92.09
71149;BME280;59072;42.144;25.200;2022-11-20T02:51:12;99438.09;;;17.69;92.15
71149;BME280;59072;42.144;25.200;2022-11-20T02:53:37;99443.56;;;17.59;92.55
71149;BME280;59072;42.144;25.200;2022-11-20T02:56:03;99449.81;;;17.54;92.48
71149;BME280;59072;42.144;25.200;2022-11-20T02:58:28;99440.00;;;17.68;90.51
71149;BME280;59072;42.144;25.200;2022-11-20T03:00:54;99440.53;;;17.71;90.11
71149;BME280;59072;42.144;25.200;2022-11-20T03:03:19;99440.25;;;17.72;90.09
71149;BME280;59072;42.144;25.200;2022-11-20T03:05:44;99445.84;;;17.81;90.06
71149;BME280;59072;42.144;25.200;2022-11-20T03:08:10;99449.63;;;17.85;89.60
71149;BME280;59072;42.144;25.200;2022-11-20T03:10:35;99446.97;;;17.75;90.54
71149;BME280;59072;42.144;25.200;2022-11-20T03:13:01;99417.91;;;17.66;90.34
71149;BME280;59072;42.144;25.200;2022-11-20T03:15:26;99440.25;;;17.72;90.67
71149;BME280;59072;42.144;25.200;2022-11-20T03:17:55;99440.28;;;17.67;90.49
71149;BME280;59072;42.144;25.200;2022-11-20T03:20:21;99429.81;;;17.60;90.80
71149;BME280;59072;42.144;25.200;2022-11-20T03:22:46;99430.88;;;17.64;90.35
71149;BME280;59072;42.144;25.200;2022-11-20T03:25:12;99423.81;;;17.74;89.37
71149;BME280;59072;42.144;25.200;2022-11-20T03:27:37;99423.97;;;17.87;89.15
71149;BME280;59072;42.144;25.200;2022-11-20T03:30:03;99423.81;;;17.74;88.91
71149;BME280;59072;42.144;25.200;2022-11-20T03:32:29;99425.97;;;17.72;88.59
71149;BME280;59072;42.144;25.200;2022-11-20T03:34:54;99423.31;;;17.66;89.00
71149;BME280;59072;42.144;25.200;2022-11-20T03:37:20;99433.47;;;17.80;88.29
71149;BME280;59072;42.144;25.200;2022-11-20T03:39:45;99430.75;;;17.85;87.74
71149;BME280;59072;42.144;25.200;2022-11-20T03:42:10;99422.44;;;17.71;87.94
71149;BME280;59072;42.144;25.200;2022-11-20T03:44:56;99429.19;;;17.74;88.05
71149;BME280;59072;42.144;25.200;2022-11-20T03:47:21;99415.47;;;17.70;88.04
71149;BME280;59072;42.144;25.200;2022-11-20T03:49:47;99415.03;;;17.58;87.55
71149;BME280;59072;42.144;25.200;2022-11-20T03:52:12;99434.59;;;17.74;87.35
71149;BME280;59072;42.144;25.200;2022-11-20T03:54:38;99431.59;;;17.75;87.70
71149;BME280;59072;42.144;25.200;2022-11-20T03:57:03;99416.63;;;17.59;88.75
71149;BME280;59072;42.144;25.200;2022-11-20T03:59:29;99423.06;;;17.63;88.14
71149;BME280;59072;42.144;25.200;2022-11-20T04:01:54;99419.03;;;17.60;88.35
71149;BME280;59072;42.144;25.200;2022-11-20T04:04:19;99413.72;;;17.50;88.24
71149;BME280;59072;42.144;25.200;2022-11-20T04:06:45;99407.22;;;17.56;87.44
71149;BME280;59072;42.144;25.200;2022-11-20T04:09:10;99404.41;;;17.72;87.53
71149;BME280;59072;42.144;25.200;2022-11-20T04:11:37;99392.16;;;17.50;88.28
71149;BME280;59072;42.144;25.200;2022-11-20T04:14:06;99427.97;;;17.56;88.28
71149;BME280;59072;42.144;25.200;2022-11-20T04:16:36;99427.66;;;17.62;87.72
71149;BME280;59072;42.144;25.200;2022-11-20T04:19:04;99407.78;;;17.53;87.26
71149;BME280;59072;42.144;25.200;2022-11-20T04:21:30;99403.72;;;17.51;86.78
71149;BME280;59072;42.144;25.200;2022-11-20T04:23:56;99425.47;;;17.64;86.36
71149;BME280;59072;42.144;25.200;2022-11-20T04:26:23;99423.38;;;17.56;86.79
71149;BME280;59072;42.144;25.200;2022-11-20T04:28:49;99421.13;;;17.68;85.98
71149;BME280;59072;42.144;25.200;2022-11-20T04:31:18;99408.34;;;17.50;86.64
71149;BME280;59072;42.144;25.200;2022-11-20T04:33:44;99427.66;;;17.62;86.45
71149;BME280;59072;42.144;25.200;2022-11-20T04:36:14;99426.06;;;17.61;86.17
71149;BME280;59072;42.144;25.200;2022-11-20T04:38:40;99406.44;;;17.51;87.12
71149;BME280;59072;42.144;25.200;2022-11-20T04:41:08;99418.34;;;17.44;87.62
71149;BME280;59072;42.144;25.200;2022-11-20T04:43:34;99428.03;;;17.45;87.63
71149;BME280;59072;42.144;25.200;2022-11-20T04:46:01;99422.91;;;17.49;87.63
71149;BME280;59072;42.144;25.200;2022-11-20T04:48:28;99419.44;;;17.43;87.73
71149;BME280;59072;42.144;25.200;2022-11-20T04:50:54;99401.56;;;17.53;86.97
71149;BME280;59072;42.144;25.200;2022-11-20T04:53:21;99409.63;;;17.58;86.41
71149;BME280;59072;42.144;25.200;2022-11-20T04:55:46;99430.31;;;17.67;86.48
71149;BME280;59072;42.144;25.200;2022-11-20T04:58:12;99402.84;;;17.60;86.28
71149;BME280;59072;42.144;25.200;2022-11-20T05:00:38;99417.06;;;17.71;86.87
71149;BME280;59072;42.144;25.200;2022-11-20T05:03:04;99411.72;;;17.66;86.30
71149;BME280;59072;42.144;25.200;2022-11-20T05:05:30;99419.94;;;17.85;86.05
71149;BME280;59072;42.144;25.200;2022-11-20T05:07:56;99412.44;;;17.77;86.50
71149;BME280;59072;42.144;25.200;2022-11-20T05:10:23;99400.94;;;17.66;86.11
71149;BME280;59072;42.144;25.200;2022-11-20T05:12:49;99420.00;;;17.75;85.53
71149;BME280;59072;42.144;25.200;2022-11-20T05:15:14;99419.44;;;17.83;85.23
71149;BME280;59072;42.144;25.200;2022-11-20T05:17:40;99437.97;;;17.90;84.54
71149;BME280;59072;42.144;25.200;2022-11-20T05:20:05;99441.56;;;17.80;84.67
71149;BME280;59072;42.144;25.200;2022-11-20T05:22:31;99430.91;;;17.99;83.46
71149;BME280;59072;42.144;25.200;2022-11-20T05:24:56;99431.66;;;18.04;83.08
71149;BME280;59072;42.144;25.200;2022-11-20T05:27:22;99431.69;;;17.99;83.36
71149;BME280;59072;42.144;25.200;2022-11-20T05:29:47;99441.94;;;18.02;83.30
71149;BME280;59072;42.144;25.200;2022-11-20T05:32:13;99445.16;;;18.04;83.08
71149;BME280;59072;42.144;25.200;2022-11-20T05:34:38;99446.09;;;18.19;82.52
71149;BME280;59072;42.144;25.200;2022-11-20T05:37:03;99426.09;;;18.20;82.21
71149;BME280;59072;42.144;25.200;2022-11-20T05:39:29;99425.31;;;18.19;82.83
71149;BME280;59072;42.144;25.200;2022-11-20T05:41:54;99418.63;;;18.12;82.39
71149;BME280;59072;42.144;25.200;2022-11-20T05:44:38;99442.78;;;18.27;82.40
71149;BME280;59072;42.144;25.200;2022-11-20T05:47:04;99417.47;;;18.23;81.99
71149;BME280;59072;42.144;25.200;2022-11-20T05:49:30;99435.22;;;18.29;81.90
71149;BME280;59072;42.144;25.200;2022-11-20T05:51:55;99430.94;;;18.23;81.92
71149;BME280;59072;42.144;25.200;2022-11-20T05:54:21;99447.09;;;18.28;81.74
71149;BME280;59072;42.144;25.200;2022-11-20T05:56:46;99447.47;;;18.45;81.22
71149;BME280;59072;42.144;25.200;2022-11-20T05:59:12;99445.78;;;18.50;81.15
71149;BME280;59072;42.144;25.200;2022-11-20T06:01:37;99436.81;;;18.30;80.71
71149;BME280;59072;42.144;25.200;2022-11-20T06:04:02;99448.31;;;18.41;81.04
71149;BME280;59072;42.144;25.200;2022-11-20T06:06:28;99444.53;;;18.42;81.09
71149;BME280;59072;42.144;25.200;2022-11-20T06:08:54;99449.00;;;18.52;80.89
71149;BME280;59072;42.144;25.200;2022-11-20T06:11:20;99435.25;;;18.24;82.96
71149;BME280;59072;42.144;25.200;2022-11-20T06:13:46;99450.50;;;18.39;82.42
71149;BME280;59072;42.144;25.200;2022-11-20T06:16:14;99451.84;;;18.36;82.67
71149;BME280;59072;42.144;25.200;2022-11-20T06:18:40;99455.34;;;18.37;82.12
71149;BME280;59072;42.144;25.200;2022-11-20T06:21:19;99469.34;;;18.44;82.15
71149;BME280;59072;42.144;25.200;2022-11-20T06:23:46;99447.19;;;18.18;83.36
71149;BME280;59072;42.144;25.200;2022-11-20T06:26:17;99465.94;;;18.33;84.68
71149;BME280;59072;42.144;25.200;2022-11-20T06:28:44;99468.16;;;18.26;85.58
71149;BME280;59072;42.144;25.200;2022-11-20T06:31:11;99463.78;;;18.30;85.55
71149;BME280;59072;42.144;25.200;2022-11-20T06:33:37;99483.88;;;18.19;86.45
71149;BME280;59072;42.144;25.200;2022-11-20T06:36:03;99477.13;;;18.16;86.67
71149;BME280;59072;42.144;25.200;2022-11-20T06:38:28;99474.25;;;18.07;85.93
71149;BME280;59072;42.144;25.200;2022-11-20T06:40:54;99488.44;;;18.23;85.88
71149;BME280;59072;42.144;25.200;2022-11-20T06:43:20;99494.00;;;18.32;85.75
71149;BME280;59072;42.144;25.200;2022-11-20T06:45:45;99482.75;;;18.25;85.42
71149;BME280;59072;42.144;25.200;2022-11-20T06:48:11;99491.22;;;18.42;84.55
71149;BME280;59072;42.144;25.200;2022-11-20T06:50:37;99487.88;;;18.51;84.52
71149;BME280;59072;42.144;25.200;2022-11-20T06:53:03;99494.31;;;18.55;84.79
71149;BME280;59072;42.144;25.200;2022-11-20T06:55:30;99488.38;;;18.58;84.87
71149;BME280;59072;42.144;25.200;2022-11-20T06:57:56;99486.41;;;18.39;85.02
71149;BME280;59072;42.144;25.200;2022-11-20T07:00:21;99498.66;;;18.56;84.38
71149;BME280;59072;42.144;25.200;2022-11-20T07:02:46;99476.13;;;18.41;83.53
71149;BME280;59072;42.144;25.200;2022-11-20T07:05:12;99496.81;;;18.51;83.67
71149;BME280;59072;42.144;25.200;2022-11-20T07:07:37;99499.63;;;18.65;82.83
71149;BME280;59072;42.144;25.200;2022-11-20T07:10:03;99503.75;;;18.86;81.20
71149;BME280;59072;42.144;25.200;2022-11-20T07:12:29;99503.84;;;18.76;81.47
71149;BME280;59072;42.144;25.200;2022-11-20T07:14:54;99480.59;;;18.75;80.31
71149;BME280;59072;42.144;25.200;2022-11-20T07:17:20;99480.06;;;18.78;79.72
71149;BME280;59072;42.144;25.200;2022-11-20T07:19:45;99483.75;;;18.87;79.66
71149;BME280;59072;42.144;25.200;2022-11-20T07:22:10;99506.88;;;18.99;80.34
71149;BME280;59072;42.144;25.200;2022-11-20T07:24:36;99484.59;;;19.07;80.00
71149;BME280;59072;42.144;25.200;2022-11-20T07:27:01;99486.13;;;18.94;80.12
71149;BME280;59072;42.144;25.200;2022-11-20T07:29:27;99504.91;;;19.04;79.87
71149;BME280;59072;42.144;25.200;2022-11-20T07:31:52;99498.63;;;19.09;80.00
71149;BME280;59072;42.144;25.200;2022-11-20T07:34:18;99486.94;;;19.14;80.33
71149;BME280;59072;42.144;25.200;2022-11-20T07:36:43;99499.78;;;19.03;81.60
71149;BME280;59072;42.144;25.200;2022-11-20T07:39:08;99508.69;;;19.03;81.79
71149;BME280;59072;42.144;25.200;2022-11-20T07:41:34;99501.78;;;19.16;82.16
71149;BME280;59072;42.144;25.200;2022-11-20T07:43:59;99496.84;;;18.99;82.36
71149;BME280;59072;42.144;25.200;2022-11-20T07:46:25;99508.34;;;19.10;82.45
71149;BME280;59072;42.144;25.200;2022-11-20T07:48:50;99505.47;;;19.01;83.01
71149;BME280;59072;42.144;25.200;2022-11-20T07:51:15;99501.44;;;19.23;82.40
71149;BME280;59072;42.144;25.200;2022-11-20T07:53:42;99511.75;;;19.21;82.94
71149;BME280;59072;42.144;25.200;2022-11-20T07:56:07;99512.91;;;19.34;82.46
71149;BME280;59072;42.144;25.200;2022-11-20T07:58:33;99505.59;;;19.15;82.15
71149;BME280;59072;42.144;25.200;2022-11-20T08:01:06;99516.31;;;19.20;82.74
71149;BME280;59072;42.144;25.200;2022-11-20T08:03:32;99521.44;;;19.22;82.94
71149;BME280;59072;42.144;25.200;2022-11-20T08:06:01;99508.66;;;19.27;82.71
71149;BME280;59072;42.144;25.200;2022-11-20T08:08:27;99500.47;;;19.33;82.55
71149;BME280;59072;42.144;25.200;2022-11-20T08:10:53;99491.84;;;19.31;82.73
71149;BME280;59072;42.144;25.200;2022-11-20T08:13:39;99503.97;;;19.14;84.06
71149;BME280;59072;42.144;25.200;2022-11-20T08:16:33;99495.34;;;19.12;84.27
71149;BME280;59072;42.144;25.200;2022-11-20T08:18:59;99512.06;;;19.14;84.58
71149;BME280;59072;42.144;25.200;2022-11-20T08:21:24;99503.97;;;19.14;84.47
71149;BME280;59072;42.144;25.200;2022-11-20T08:23:50;99501.09;;;19.05;85.28
71149;BME280;59072;42.144;25.200;2022-11-20T08:26:15;99512.25;;;18.99;85.93
71149;BME280;59072;42.144;25.200;2022-11-20T08:28:40;99502.13;;;18.85;86.63
71149;BME280;59072;42.144;25.200;2022-11-20T08:31:06;99508.66;;;18.84;87.00
71149;BME280;59072;42.144;25.200;2022-11-20T08:33:31;99508.00;;;18.93;86.36
71149;BME280;59072;42.144;25.200;2022-11-20T08:36:05;99505.03;;;18.94;86.14
71149;BME280;59072;42.144;25.200;2022-11-20T08:38:31;99494.09;;;18.80;86.56
71149;BME280;59072;42.144;25.200;2022-11-20T08:41:01;99505.59;;;18.91;85.78
71149;BME280;59072;42.144;25.200;2022-11-20T08:43:45;99499.81;;;18.74;87.36
71149;BME280;59072;42.144;25.200;2022-11-20T08:46:11;99492.44;;;18.84;87.17
71149;BME280;59072;42.144;25.200;2022-11-20T08:48:37;99487.06;;;18.79;87.75
71149;BME280;59072;42.144;25.200;2022-11-20T08:51:02;99493.72;;;18.63;88.98
71149;BME280;59072;42.144;25.200;2022-11-20T08:53:28;99490.91;;;18.73;88.65
71149;BME280;59072;42.144;25.200;2022-11-20T08:55:53;99490.34;;;18.76;88.38
71149;BME280;59072;42.144;25.200;2022-11-20T08:58:19;99494.03;;;18.85;88.09
71149;BME280;59072;42.144;25.200;2022-11-20T09:00:44;99476.28;;;18.79;87.67
71149;BME280;59072;42.144;25.200;2022-11-20T09:03:09;99494.91;;;18.81;88.11
71149;BME280;59072;42.144;25.200;2022-11-20T09:05:35;99467.69;;;18.72;87.42
71149;BME280;59072;42.144;25.200;2022-11-20T09:08:00;99475.19;;;18.80;86.55
71149;BME280;59072;42.144;25.200;2022-11-20T09:10:26;99476.84;;;19.00;85.81
71149;BME280;59072;42.144;25.200;2022-11-20T09:12:53;99483.50;;;19.08;86.14
71149;BME280;59072;42.144;25.200;2022-11-20T09:15:20;99479.84;;;18.99;86.14
71149;BME280;59072;42.144;25.200;2022-11-20T09:17:59;99475.97;;;19.05;85.45
71149;BME280;59072;42.144;25.200;2022-11-20T09:20:26;99485.88;;;19.15;85.78
71149;BME280;59072;42.144;25.200;2022-11-20T09:22:53;99471.84;;;19.13;85.73
71149;BME280;59072;42.144;25.200;2022-11-20T09:25:19;99471.47;;;19.19;85.83
71149;BME280;59072;42.144;25.200;2022-11-20T09:27:44;99462.34;;;19.34;84.53
71149;BME280;59072;42.144;25.200;2022-11-20T09:30:12;99444.53;;;19.33;84.23
71149;BME280;59072;42.144;25.200;2022-11-20T09:32:42;99456.34;;;19.56;83.52
71149;BME280;59072;42.144;25.200;2022-11-20T09:35:08;99453.06;;;19.59;83.24
71149;BME280;59072;42.144;25.200;2022-11-20T09:37:33;99447.13;;;19.95;82.48
71149;BME280;59072;42.144;25.200;2022-11-20T09:39:59;99427.75;;;20.21;80.54
71149;BME280;59072;42.144;25.200;2022-11-20T09:55:03;99443.06;;;21.73;72.49
71149;BME280;59072;42.144;25.200;2022-11-20T09:57:39;99429.47;;;21.73;72.17
71149;BME280;59072;42.144;25.200;2022-11-20T10:00:10;99414.25;;;22.17;70.35
71149;BME280;59072;42.144;25.200;2022-11-20T10:03:00;99432.69;;;22.60;66.36
71149;BME280;59072;42.144;25.200;2022-11-20T10:05:37;99420.31;;;22.14;68.04
71149;BME280;59072;42.144;25.200;2022-11-20T10:08:34;99430.19;;;22.10;67.86
71149;BME280;59072;42.144;25.200;2022-11-20T10:27:34;99420.50;;;21.27;65.98
71149;BME280;59072;42.144;25.200;2022-11-20T10:32:42;99421.53;;;21.40;67.29
71149;BME280;59072;42.144;25.200;2022-11-20T10:35:27;99417.84;;;21.50;67.20
71149;BME280;59072;42.144;25.200;2022-11-20T10:38:00;99418.44;;;21.33;68.12
71149;BME280;59072;42.144;25.200;2022-11-20T10:40:35;99409.88;;;21.17;69.16
71149;BME280;59072;42.144;25.200;2022-11-20T10:43:13;99393.78;;;21.20;69.34
71149;BME280;59072;42.144;25.200;2022-11-20T10:45:58;99393.94;;;21.38;68.84
71149;BME280;59072;42.144;25.200;2022-11-20T10:48:25;99365.63;;;21.30;68.71
71149;BME280;59072;42.144;25.200;2022-11-20T10:58:38;99381.53;;;21.23;71.32
71149;BME280;59072;42.144;25.200;2022-11-20T11:01:16;99384.41;;;21.26;71.57
71149;BME280;59072;42.144;25.200;2022-11-20T11:03:42;99367.66;;;21.24;70.53
71149;BME280;59072;42.144;25.200;2022-11-20T11:06:17;99359.41;;;21.30;70.91
71149;BME280;59072;42.144;25.200;2022-11-20T11:08:46;99372.63;;;21.45;69.41
71149;BME280;59072;42.144;25.200;2022-11-20T11:11:18;99371.78;;;21.58;69.88
71149;BME280;59072;42.144;25.200;2022-11-20T11:13:45;99367.09;;;21.50;70.41
71149;BME280;59072;42.144;25.200;2022-11-20T11:16:25;99360.13;;;21.58;69.84
71149;BME280;59072;42.144;25.200;2022-11-20T11:18:51;99350.34;;;21.79;68.97
71149;BME280;59072;42.144;25.200;2022-11-20T11:21:24;99330.53;;;21.79;68.91
71149;BME280;59072;42.144;25.200;2022-11-20T11:23:59;99339.28;;;22.38;67.31
71149;BME280;59072;42.144;25.200;2022-11-20T11:26:25;99342.25;;;22.68;65.19
71149;BME280;59072;42.144;25.200;2022-11-20T11:29:01;99329.72;;;22.50;67.02
71149;BME280;59072;42.144;25.200;2022-11-20T11:31:30;99320.13;;;22.43;66.97
71149;BME280;59072;42.144;25.200;2022-11-20T11:34:14;99340.25;;;22.51;65.67
71149;BME280;59072;42.144;25.200;2022-11-20T11:36:41;99310.28;;;22.82;65.06
71149;BME280;59072;42.144;25.200;2022-11-20T11:39:14;99307.72;;;22.95;65.41
71149;BME280;59072;42.144;25.200;2022-11-20T11:41:41;99313.16;;;22.95;62.67
71149;BME280;59072;42.144;25.200;2022-11-20T11:44:17;99310.28;;;22.82;63.62
71149;BME280;59072;42.144;25.200;2022-11-20T11:47:04;99319.66;;;23.72;61.22
71149;BME280;59072;42.144;25.200;2022-11-20T11:49:31;99324.91;;;23.95;59.51
71149;BME280;59072;42.144;25.200;2022-11-20T11:52:13;99324.94;;;23.60;61.08
71149;BME280;59072;42.144;25.200;2022-11-20T11:54:58;99316.69;;;23.21;61.61
71149;BME280;59072;42.144;25.200;2022-11-20T11:57:29;99319.56;;;23.16;63.25
71149;BME280;59072;42.144;25.200;2022-11-20T12:00:08;99325.16;;;22.76;64.61
71149;BME280;59072;42.144;25.200;2022-11-20T12:05:43;99319.41;;;23.13;63.62
71149;BME280;59072;42.144;25.200;2022-11-20T12:11:14;99304.81;;;23.00;63.21
71149;BME280;59072;42.144;25.200;2022-11-20T12:13:48;99325.44;;;22.66;64.96
71149;BME280;59072;42.144;25.200;2022-11-20T12:16:18;99322.06;;;22.52;64.69
71149;BME280;59072;42.144;25.200;2022-11-20T12:18:47;99317.72;;;22.42;66.01
71149;BME280;59072;42.144;25.200;2022-11-20T12:26:41;99304.16;;;22.11;66.63
71149;BME280;59072;42.144;25.200;2022-11-20T12:40:08;99298.06;;;21.65;68.44
71149;BME280;59072;42.144;25.200;2022-11-20T12:46:12;99281.53;;;21.44;69.45
71149;BME280;59072;42.144;25.200;2022-11-20T12:51:51;99278.88;;;21.61;69.24
71149;BME280;59072;42.144;25.200;2022-11-20T12:57:22;99297.84;;;21.53;68.32
71149;BME280;59072;42.144;25.200;2022-11-20T13:07:55;99266.03;;;21.22;70.47
71149;BME280;59072;42.144;25.200;2022-11-20T13:18:11;99262.09;;;21.28;70.08
71149;BME280;59072;42.144;25.200;2022-11-20T13:20:42;99286.16;;;21.43;69.81
71149;BME280;59072;42.144;25.200;2022-11-20T13:23:08;99279.53;;;21.13;70.38
71149;BME280;59072;42.144;25.200;2022-11-20T13:25:36;99279.81;;;21.34;69.99
71149;BME280;59072;42.144;25.200;2022-11-20T13:28:28;99291.47;;;21.35;67.84
71149;BME280;59072;42.144;25.200;2022-11-20T13:30:55;99290.63;;;21.25;68.00
71149;BME280;59072;42.144;25.200;2022-11-20T13:33:35;99267.31;;;21.24;68.22
71149;BME280;59072;42.144;25.200;2022-11-20T13:36:07;99285.31;;;21.20;68.11
71149;BME280;59072;42.144;25.200;2022-11-20T13:38:50;99281.94;;;21.15;67.98
71149;BME280;59072;42.144;25.200;2022-11-20T13:41:36;99273.31;;;21.13;68.56
71149;BME280;59072;42.144;25.200;2022-11-20T13:46:37;99290.19;;;21.10;68.82
71149;BME280;59072;42.144;25.200;2022-11-20T13:49:08;99276.88;;;20.99;69.48
71149;BME280;59072;42.144;25.200;2022-11-20T13:51:43;99264.84;;;20.92;69.75
71149;BME280;59072;42.144;25.200;2022-11-20T13:57:14;99265.59;;;20.83;68.92
71149;BME280;59072;42.144;25.200;2022-11-20T13:59:57;99293.44;;;20.98;68.94
71149;BME280;59072;42.144;25.200;2022-11-20T14:02:26;99271.63;;;20.80;68.67
71149;BME280;59072;42.144;25.200;2022-11-20T14:04:55;99289.88;;;20.89;69.51
71149;BME280;59072;42.144;25.200;2022-11-20T14:07:25;99286.78;;;20.81;68.71
71149;BME280;59072;42.144;25.200;2022-11-20T14:09:56;99289.28;;;20.78;68.64
71149;BME280;59072;42.144;25.200;2022-11-20T14:12:28;99267.25;;;20.57;69.56
71149;BME280;59072;42.144;25.200;2022-11-20T14:14:54;99293.13;;;20.77;68.39
71149;BME280;59072;42.144;25.200;2022-11-20T14:19:54;99297.13;;;20.79;66.73
71149;BME280;59072;42.144;25.200;2022-11-20T14:22:24;99299.53;;;20.81;68.71
71149;BME280;59072;42.144;25.200;2022-11-20T14:27:34;99310.59;;;20.57;71.09
71149;BME280;59072;42.144;25.200;2022-11-20T14:30:01;99332.19;;;20.62;63.41
71149;BME280;59072;42.144;25.200;2022-11-20T14:32:29;99357.13;;;20.86;60.14
71149;BME280;59072;42.144;25.200;2022-11-20T14:34:59;99355.88;;;21.06;60.82
71149;BME280;59072;42.144;25.200;2022-11-20T14:37:28;99386.38;;;21.12;60.99
71149;BME280;59072;42.144;25.200;2022-11-20T14:39:56;99389.06;;;21.12;61.95
71149;BME280;59072;42.144;25.200;2022-11-20T14:42:26;99378.59;;;20.97;63.70